Sheringham, United Kingdom
Current Conditions -  °F | °C
As of 1:20 AM on Thursday 23 Oct 2014 (Local Time) from EGSH Reporting Station
Few Clouds Few Clouds  
Wind Chill: 50°   Ceiling: Unl
Heat Index: 50°   Visibility: 6mi
Dew Point: 46°   Wind: 8mph
Humidity: 87%   Direction: 220°SW
Pressure: 30.15"   Gusts: NA
Location:  52.94°N, 1.21°E
Report Text: EGSH 230020Z AUTO 22007KT 9999 FEW044/// 10/08 Q1021
Loading
Personal Weather Stations






























Interactive Weather Map
Tropical Storm Tracking
New forecast layout! Learn more

10-Day Weather Forecast

Advertisements
Track Severe Weather on mobile